createdAt,value
2019-05-12T00:01:55.406Z,6.70
2019-05-12T00:05:58.863Z,6.70
2019-05-12T00:10:02.321Z,6.70
2019-05-12T00:14:05.747Z,6.60
2019-05-12T00:18:09.443Z,6.50
2019-05-12T00:22:14.674Z,6.50
2019-05-12T00:26:18.658Z,6.40
2019-05-12T00:30:32.261Z,6.40
2019-05-12T00:34:35.705Z,6.30
2019-05-12T00:38:39.141Z,6.20
2019-05-12T00:42:42.585Z,6.20
2019-05-12T00:46:46.043Z,6.10
2019-05-12T00:50:49.490Z,6.10
2019-05-12T00:54:52.930Z,6.00
2019-05-12T00:58:58.024Z,6.00
2019-05-12T01:03:01.597Z,5.90
2019-05-12T01:07:05.294Z,5.90
2019-05-12T01:11:08.860Z,5.90
2019-05-12T01:15:12.991Z,5.80
2019-05-12T01:19:18.449Z,5.90
2019-05-12T01:23:23.493Z,5.80
2019-05-12T01:27:28.643Z,5.80
2019-05-12T01:31:33.574Z,5.90
2019-05-12T01:35:38.862Z,5.80
2019-05-12T01:39:42.573Z,5.70
2019-05-12T01:43:46.022Z,5.70
2019-05-12T01:47:49.718Z,5.70
2019-05-12T01:51:53.167Z,5.70
2019-05-12T01:55:58.534Z,5.60
2019-05-12T02:00:02.085Z,5.60
2019-05-12T02:04:07.558Z,5.50
2019-05-12T02:08:12.330Z,5.50
2019-05-12T02:12:18.153Z,5.40
2019-05-12T02:16:20.942Z,5.30
2019-05-12T02:20:24.465Z,5.20
2019-05-12T02:24:30.482Z,5.00
2019-05-12T02:28:33.078Z,5.00
2019-05-12T02:32:48.061Z,4.90
2019-05-12T02:36:44.617Z,4.80
2019-05-12T02:40:46.409Z,4.60
2019-05-12T02:44:50.134Z,4.40
2019-05-12T02:48:54.725Z,4.30
2019-05-12T02:52:58.318Z,4.40
2019-05-12T02:57:04.436Z,4.40
2019-05-12T03:01:08.554Z,4.30
2019-05-12T03:05:14.839Z,4.30
2019-05-12T03:09:17.244Z,4.20
2019-05-12T03:13:20.938Z,4.30
2019-05-12T03:17:25.334Z,4.20
2019-05-12T03:21:28.956Z,4.30
2019-05-12T03:25:35.867Z,4.50
2019-05-12T03:29:37.562Z,4.50
2019-05-12T03:33:45.709Z,4.60
2019-05-12T03:37:45.481Z,4.60
2019-05-12T03:41:48.914Z,4.50
2019-05-12T03:45:55.622Z,4.50
2019-05-12T03:49:57.534Z,4.40
2019-05-12T03:54:04.414Z,4.40
2019-05-12T03:58:06.666Z,4.40
2019-05-12T04:02:10.160Z,4.30
2019-05-12T04:06:15.502Z,4.50
2019-05-12T04:10:20.651Z,4.50
2019-05-12T04:14:25.227Z,4.60
2019-05-12T04:18:28.957Z,4.70
2019-05-12T04:22:35.181Z,4.80
2019-05-12T04:26:37.020Z,4.80
2019-05-12T04:30:40.509Z,4.90
2019-05-12T04:34:44.724Z,5.10
2019-05-12T04:38:48.363Z,5.10
2019-05-12T04:42:54.767Z,5.30
2019-05-12T04:46:57.212Z,5.50
2019-05-12T04:51:00.655Z,5.60
2019-05-12T04:55:05.186Z,5.70
2019-05-12T04:59:08.923Z,5.80
2019-05-12T05:03:14.212Z,5.90
2019-05-12T05:07:17.553Z,6.00
2019-05-12T05:11:21.004Z,6.10
2019-05-12T05:15:25.134Z,6.20
2019-05-12T05:19:28.625Z,6.40
2019-05-12T05:23:33.488Z,6.40
2019-05-12T05:27:37.085Z,6.60
2019-05-12T05:31:40.781Z,6.70
2019-05-12T05:35:44.257Z,6.80
2019-05-12T05:39:49.644Z,6.90
2019-05-12T05:43:58.262Z,7.00
2019-05-12T05:47:59.566Z,7.20
2019-05-12T05:52:03.878Z,7.30
2019-05-12T05:56:08.257Z,7.30
2019-05-12T06:00:17.245Z,7.40
2019-05-12T06:04:17.209Z,7.50
2019-05-12T06:08:21.146Z,7.60
2019-05-12T06:12:25.822Z,7.70
2019-05-12T06:16:29.298Z,7.80
2019-05-12T06:20:37.473Z,8.00
2019-05-12T06:24:38.211Z,8.10
2019-05-12T06:28:43.800Z,8.20
2019-05-12T06:32:50.501Z,8.30
2019-05-12T06:36:56.503Z,8.40
2019-05-12T06:40:57.409Z,8.60
2019-05-12T06:45:00.862Z,8.80
2019-05-12T06:49:12.616Z,8.80
2019-05-12T06:53:08.955Z,8.90
2019-05-12T06:57:22.130Z,8.90
2019-05-12T07:01:19.466Z,9.00
2019-05-12T07:05:23.322Z,9.20
2019-05-12T07:09:28.728Z,9.30
2019-05-12T07:13:34.108Z,9.30
2019-05-12T07:17:49.669Z,9.50
2019-05-12T07:21:50.609Z,9.60
2019-05-12T07:25:55.335Z,9.80
2019-05-12T07:29:58.774Z,9.90
2019-05-12T07:34:05.337Z,10.20
2019-05-12T07:38:12.034Z,10.30
2019-05-12T07:42:13.971Z,10.40
2019-05-12T07:46:17.602Z,10.40
2019-05-12T07:50:24.864Z,10.40
2019-05-12T07:54:29.341Z,10.50
2019-05-12T07:58:33.304Z,10.80
2019-05-12T08:02:36.891Z,10.90
2019-05-12T08:06:42.554Z,11.00
2019-05-12T08:10:45.538Z,11.10
2019-05-12T08:14:49.241Z,11.30
2019-05-12T08:18:53.508Z,11.40
2019-05-12T08:22:59.670Z,11.20
2019-05-12T08:27:05.791Z,11.20
2019-05-12T08:31:07.333Z,11.40
2019-05-12T08:35:10.944Z,11.50
2019-05-12T08:39:21.427Z,11.70
2019-05-12T08:43:19.557Z,11.70
2019-05-12T08:47:23.893Z,11.80
2019-05-12T08:51:27.747Z,12.10
2019-05-12T08:55:33.345Z,12.40
2019-05-12T08:59:36.898Z,12.10
2019-05-12T09:03:40.329Z,12.20
2019-05-12T09:07:44.067Z,12.40
2019-05-12T09:11:47.895Z,12.30
2019-05-12T09:15:53.997Z,12.40
2019-05-12T09:20:05.993Z,12.80
2019-05-12T09:24:04.225Z,12.70
2019-05-12T09:28:08.522Z,13.00
2019-05-12T09:32:14.368Z,13.10
2019-05-12T09:36:21.766Z,12.90
2019-05-12T09:40:24.699Z,13.00
2019-05-12T09:44:30.433Z,13.50
2019-05-12T09:48:33.542Z,13.40
2019-05-12T09:52:37.030Z,13.30
2019-05-12T09:56:41.379Z,13.10
2019-05-12T10:00:45.651Z,13.00
2019-05-12T10:04:55.584Z,13.20
2019-05-12T10:08:55.534Z,13.30
2019-05-12T10:12:59.237Z,13.50
2019-05-12T10:17:03.661Z,13.90
2019-05-12T10:21:10.141Z,13.80
2019-05-12T10:25:14.400Z,13.60
2019-05-12T10:29:20.904Z,13.40
2019-05-12T10:33:23.387Z,13.70
2019-05-12T10:37:29.325Z,13.90
2019-05-12T10:41:34.139Z,14.20
2019-05-12T10:45:37.462Z,14.00
2019-05-12T10:49:40.920Z,14.10
2019-05-12T10:53:48.704Z,14.10
2019-05-12T10:57:52.904Z,14.10
2019-05-12T11:01:55.281Z,13.80
2019-05-12T11:06:02.388Z,13.60
2019-05-12T11:10:15.138Z,13.60
2019-05-12T11:14:14.270Z,13.10
2019-05-12T11:18:20.627Z,12.90
2019-05-12T11:22:23.417Z,13.10
2019-05-12T11:26:26.866Z,13.10
2019-05-12T11:30:30.313Z,13.40
2019-05-12T11:34:35.301Z,13.70
2019-05-12T11:38:39.026Z,13.90
2019-05-12T11:42:46.795Z,14.20
2019-05-12T11:46:47.652Z,14.30
2019-05-12T11:50:51.466Z,14.70
2019-05-12T11:54:55.059Z,14.90
2019-05-12T11:58:58.762Z,14.70
2019-05-12T12:03:05.791Z,14.40
2019-05-12T12:07:07.373Z,14.30
2019-05-12T12:11:18.595Z,14.30
2019-05-12T12:15:20.586Z,14.40
2019-05-12T12:19:26.103Z,14.40
2019-05-12T12:23:25.955Z,14.50
2019-05-12T12:27:29.397Z,14.60
2019-05-12T12:31:52.440Z,14.90
2019-05-12T12:36:00.563Z,15.00
2019-05-12T12:40:01.308Z,14.90
2019-05-12T12:44:04.754Z,14.80
2019-05-12T12:48:08.525Z,15.00
2019-05-12T12:52:13.792Z,14.30
2019-05-12T12:56:27.729Z,14.10
2019-05-12T13:00:31.998Z,14.30
2019-05-12T13:04:28.929Z,14.60
2019-05-12T13:08:34.431Z,15.00
2019-05-12T13:12:38.230Z,15.00
2019-05-12T13:16:43.720Z,15.10
2019-05-12T13:20:46.966Z,15.10
2019-05-12T13:24:50.413Z,14.80
2019-05-12T13:28:55.189Z,14.80
2019-05-12T13:32:58.811Z,15.00
2019-05-12T13:37:03.592Z,15.20
2019-05-12T13:41:09.629Z,14.80
2019-05-12T13:45:15.936Z,15.10
2019-05-12T13:49:17.626Z,15.30
2019-05-12T13:53:21.168Z,15.20
2019-05-12T13:57:24.677Z,14.90
2019-05-12T14:01:31.919Z,14.90
2019-05-12T14:05:33.352Z,14.90
2019-05-12T14:09:36.790Z,14.80
2019-05-12T14:13:40.239Z,14.90
2019-05-12T14:17:43.938Z,14.90
2019-05-12T14:21:47.659Z,15.10
2019-05-12T14:25:51.113Z,15.10
2019-05-12T14:29:54.603Z,15.40
2019-05-12T14:33:58.054Z,15.40
2019-05-12T14:38:03.676Z,15.40
2019-05-12T14:42:06.705Z,15.10
2019-05-12T14:46:10.598Z,15.00
2019-05-12T14:50:14.511Z,15.10
2019-05-12T14:54:17.950Z,15.10
2019-05-12T14:58:23.433Z,15.10
2019-05-12T15:02:29.371Z,15.20
2019-05-12T15:06:34.706Z,15.10
2019-05-12T15:10:38.183Z,15.10
2019-05-12T15:14:43.673Z,15.20
2019-05-12T15:18:48.929Z,15.40
2019-05-12T15:22:55.209Z,15.20
2019-05-12T15:27:00.590Z,15.40
2019-05-12T15:31:03.840Z,15.20
2019-05-12T15:35:07.530Z,15.00
2019-05-12T15:39:10.995Z,14.90
2019-05-12T15:43:14.710Z,14.80
2019-05-12T15:47:18.179Z,14.80
2019-05-12T15:51:21.634Z,14.60
2019-05-12T15:55:32.668Z,14.50
2019-05-12T15:59:30.847Z,14.70
2019-05-12T16:03:34.468Z,14.60
2019-05-12T16:07:39.696Z,14.50
2019-05-12T16:11:43.310Z,14.50
2019-05-12T16:15:49.428Z,14.40
2019-05-12T16:19:53.979Z,14.40
2019-05-12T16:24:03.021Z,14.20
2019-05-12T16:28:07.235Z,14.30
2019-05-12T16:32:07.708Z,14.20
2019-05-12T16:36:12.280Z,14.10
2019-05-12T16:40:16.673Z,14.00
2019-05-12T16:44:23.152Z,13.90
2019-05-12T16:48:32.171Z,13.70
2019-05-12T16:52:32.428Z,13.70
2019-05-12T16:56:35.729Z,13.70
2019-05-12T17:00:39.565Z,13.60
2019-05-12T17:04:44.353Z,13.50
2019-05-12T17:08:49.518Z,13.40
2019-05-12T17:12:54.347Z,13.50
2019-05-12T17:16:58.162Z,13.40
2019-05-12T17:21:03.941Z,13.20
2019-05-12T17:25:10.443Z,13.10
2019-05-12T17:29:13.858Z,13.00
2019-05-12T17:33:22.895Z,12.90
2019-05-12T17:37:23.902Z,12.80
2019-05-12T17:41:31.426Z,12.60
2019-05-12T17:45:32.963Z,12.40
2019-05-12T17:49:39.077Z,12.30
2019-05-12T17:53:43.355Z,12.30
2019-05-12T17:57:50.467Z,12.10
2019-05-12T18:01:53.781Z,11.90
2019-05-12T18:05:57.582Z,11.90
2019-05-12T18:10:01.042Z,11.90
2019-05-12T18:14:07.181Z,11.80
2019-05-12T18:18:10.116Z,11.60
2019-05-12T18:22:14.294Z,11.50
2019-05-12T18:26:17.864Z,11.40
2019-05-12T18:30:23.617Z,11.30
2019-05-12T18:34:26.574Z,11.20
2019-05-12T18:38:31.955Z,11.00
2019-05-12T18:42:36.127Z,10.80
2019-05-12T18:46:45.170Z,10.70
2019-05-12T18:50:44.921Z,10.50
2019-05-12T18:54:52.131Z,10.40
2019-05-12T18:58:54.519Z,10.20
2019-05-12T19:02:59.805Z,9.90
2019-05-12T19:07:03.898Z,10.00
2019-05-12T19:11:18.910Z,10.00
2019-05-12T19:15:17.250Z,9.80
2019-05-12T19:19:20.010Z,9.70
2019-05-12T19:23:26.828Z,9.50
2019-05-12T19:27:27.691Z,9.50
2019-05-12T19:31:33.379Z,9.40
2019-05-12T19:35:38.065Z,9.40
2019-05-12T19:39:41.747Z,9.30
2019-05-12T19:43:49.387Z,9.20
2019-05-12T19:47:50.463Z,9.20
2019-05-12T19:51:54.376Z,9.20
2019-05-12T19:55:58.087Z,9.10
2019-05-12T20:00:01.583Z,9.00
2019-05-12T20:04:05.018Z,8.90
2019-05-12T20:08:08.488Z,8.70
2019-05-12T20:12:18.544Z,8.80
2019-05-12T20:16:21.427Z,8.80
2019-05-12T20:20:26.724Z,8.70
2019-05-12T20:24:27.504Z,8.60
2019-05-12T20:28:31.204Z,8.50
2019-05-12T20:32:34.647Z,8.40
2019-05-12T20:36:38.346Z,8.50
2019-05-12T20:40:43.331Z,8.40
2019-05-12T20:44:51.252Z,8.20
2019-05-12T20:48:53.828Z,8.20
2019-05-12T20:52:58.883Z,8.10
2019-05-12T20:57:07.639Z,8.10
2019-05-12T21:01:07.039Z,7.90
2019-05-12T21:05:16.399Z,7.90
2019-05-12T21:09:15.874Z,7.80
2019-05-12T21:13:27.142Z,7.70
2019-05-12T21:17:39.359Z,7.60
2019-05-12T21:21:34.331Z,7.60
2019-05-12T21:25:37.566Z,7.40
2019-05-12T21:29:43.278Z,7.30
2019-05-12T21:33:46.414Z,7.30
2019-05-12T21:37:49.864Z,7.30
2019-05-12T21:41:54.960Z,7.30
2019-05-12T21:46:01.178Z,7.20
2019-05-12T21:50:04.481Z,7.20
2019-05-12T21:54:10.207Z,7.00
2019-05-12T21:58:15.228Z,6.90
2019-05-12T22:02:19.584Z,6.90
2019-05-12T22:06:24.999Z,6.80
2019-05-12T22:10:30.797Z,6.80
2019-05-12T22:14:38.733Z,6.80
2019-05-12T22:18:39.343Z,6.70
2019-05-12T22:22:42.799Z,6.70
2019-05-12T22:26:46.759Z,6.70
2019-05-12T22:30:50.539Z,6.60
2019-05-12T22:34:54.461Z,6.60
2019-05-12T22:39:00.904Z,6.60
2019-05-12T22:43:04.432Z,6.50
2019-05-12T22:47:12.877Z,6.50
2019-05-12T22:51:18.573Z,6.40
2019-05-12T22:55:21.269Z,6.40
2019-05-12T22:59:24.170Z,6.40
2019-05-12T23:03:27.618Z,6.40
2019-05-12T23:07:33.048Z,6.40
2019-05-12T23:11:37.772Z,6.40
2019-05-12T23:15:47.559Z,6.40
2019-05-12T23:19:51.367Z,6.30
2019-05-12T23:23:57.377Z,6.30
2019-05-12T23:28:00.350Z,6.30
2019-05-12T23:32:07.226Z,6.20
2019-05-12T23:36:09.634Z,6.20
2019-05-12T23:40:16.431Z,6.10
2019-05-12T23:44:17.543Z,5.90
2019-05-12T23:48:21.559Z,5.90
2019-05-12T23:52:24.998Z,5.90
2019-05-12T23:56:28.699Z,5.90
